Bentonville, AR (72712)

10:25 AM CDT on April 01, 2015 (GMT -0500)
KARBENTO2 | | Change Station
CLOSE
Current Station
Personal Weather Station
Location: Bentonville, AR
Elevation: 1289 ft
Nearby Weather Stations

Elev 1289 ft 36.36 °N, 94.20 °W | Updated 28 seconds ago

Overcast
Overcast
62.2 °F
Feels Like 62.2 °F
N
3.3
Wind Variable Wind from SSW
Gusts 4.7 mph

Today
High -- | Low -- °F
--% Chance of Precip.
Yesterday
High -- | Low -- °F
Precip. -- in
7:03 AM 7:38 PM
Waxing Gibbous, 93% visible
Pressure 29.96 in
Visibility 9.0 miles
Clouds Few 3300 ft
Mostly Cloudy 10000 ft
Dew Point 62 °F
Humidity 100%
Rainfall 0.00 in
Snow Depth Not available.
UV 2 out of 12
Pollen 10.20 out of 12
Air Quality Not available.
Flu Activity Not available.
METAR KVBT 011515Z AUTO 20003KT 9SM FEW033 BKN100 17/14 A2996 RMK AO1

More Conditions Fewer Conditions

Pressure 29.96 in
Visibility 9.0 miles
Clouds Few 3300 ft
Mostly Cloudy 10000 ft
Dew Point 62 °F
Humidity 100%
Rainfall 0.00 in
Snow Depth Not available.
UV 2 out of 12
Pollen 10.20 out of 12
Air Quality Not available.
Flu Activity Not available.
METAR KVBT 011515Z AUTO 20003KT 9SM FEW033 BKN100 17/14 A2996 RMK AO1

More Conditions Fewer Conditions

Nowcast | as of 9:12 am CDT on April 1, 2015

At 9:12 am...National Weather Service Doppler radars detected a few scattered light rain showers affecting portions of far northeast Oklahoma and far northwest Arkansas...as well as an area of showers and thunderstorms moving into southeast Oklahoma from northeast Texas. All this activity was moving toward the northeast...around 25 miles per hour. Through 11:00 am...scattered light rain showers will continue to spread northeast across northeastern Oklahoma...and into northwestern Arkansas. Rainfall amounts will be light...with between a trace...to a few hundredths of an inch expected. A second area of stronger showers and thunderstorms will move into southeast Oklahoma...bringing moderate to heavy rainfall...along with lightning and thunder. Small hail and gusty winds will also be possible.

×

10-Day Weather Forecast

Almanac

Astronomy

Apr. 01, 2015 Rise Set
Actual Time
Civil Twilight
Nautical Twilight
Astronomical Twilight
Moon
Length of Visible Light
Length of Day
Tomorrow will be .
, % of the Moon is Illuminated

Today's Extremes

State Highs State Lows

Community

WunderPhotos

Upload Photos

1,809,982 photos uploaded!

WunderBlogs® & News

Nearby

Air Quality

  Air Quality AQ Index Pollutant
Not available.

Snow Depth

Station Depth Elevation

Earthquake Activity

City Distance Mag. Time & Date
Minimum magnitude displayed is 2.5.

Coastal Water Temperatures

Place Temperature

Stations

Nearby Weather Stations

Station Location Temp. Windchill Dew Point Humidity Wind Precip. Elev Updated Type